createdAt,value
2017-11-23T00:01:29.200Z,2.77
2017-11-23T00:03:56.745Z,2.90
2017-11-23T00:06:24.263Z,2.00
2017-11-23T00:08:51.807Z,3.23
2017-11-23T00:11:20.103Z,2.40
2017-11-23T00:13:47.659Z,2.67
2017-11-23T00:16:15.184Z,2.80
2017-11-23T00:18:42.735Z,2.70
2017-11-23T00:21:10.241Z,2.93
2017-11-23T00:23:37.749Z,2.33
2017-11-23T00:26:05.282Z,2.10
2017-11-23T00:28:32.808Z,2.63
2017-11-23T00:31:00.333Z,2.67
2017-11-23T00:33:27.855Z,2.13
2017-11-23T00:35:55.403Z,2.80
2017-11-23T00:38:22.905Z,2.30
2017-11-23T00:40:50.423Z,2.10
2017-11-23T00:43:17.958Z,2.43
2017-11-23T00:45:45.489Z,2.63
2017-11-23T00:48:13.778Z,2.53
2017-11-23T00:50:42.053Z,2.37
2017-11-23T00:53:10.353Z,1.90
2017-11-23T00:55:37.859Z,2.30
2017-11-23T00:58:05.380Z,2.70
2017-11-23T01:00:32.905Z,2.50
2017-11-23T01:03:01.177Z,2.13
2017-11-23T01:05:29.484Z,2.20
2017-11-23T01:10:30.669Z,2.50
2017-11-23T01:12:58.191Z,1.90
2017-11-23T01:15:25.705Z,2.63
2017-11-23T01:17:53.230Z,2.57
2017-11-23T01:20:20.756Z,2.30
2017-11-23T01:22:49.053Z,2.53
2017-11-23T01:25:16.600Z,3.20
2017-11-23T01:27:44.129Z,3.27
2017-11-23T01:30:11.659Z,2.50
2017-11-23T01:32:39.182Z,2.50
2017-11-23T01:35:06.707Z,2.70
2017-11-23T01:37:35.023Z,2.77
2017-11-23T01:40:02.553Z,2.37
2017-11-23T01:42:30.829Z,2.67
2017-11-23T01:44:59.138Z,3.27
2017-11-23T01:47:26.662Z,3.70
2017-11-23T01:49:54.968Z,2.60
2017-11-23T01:52:22.483Z,3.00
2017-11-23T01:54:50.021Z,2.90
2017-11-23T01:57:17.654Z,2.67
2017-11-23T01:59:45.191Z,3.00
2017-11-23T02:02:12.849Z,3.40
2017-11-23T02:04:40.372Z,2.63
2017-11-23T02:07:09.401Z,2.43
2017-11-23T02:09:36.905Z,2.47
2017-11-23T02:12:04.448Z,3.03
2017-11-23T02:14:31.963Z,2.93
2017-11-23T02:17:00.287Z,2.97
2017-11-23T02:19:27.801Z,3.10
2017-11-23T02:21:56.078Z,3.37
2017-11-23T02:24:24.365Z,2.50
2017-11-23T02:26:51.869Z,3.00
2017-11-23T02:29:19.403Z,2.80
2017-11-23T02:31:46.921Z,2.80
2017-11-23T02:34:15.214Z,2.80
2017-11-23T02:36:42.760Z,3.27
2017-11-23T02:39:10.324Z,3.40
2017-11-23T02:41:38.607Z,2.50
2017-11-23T02:44:06.139Z,3.53
2017-11-23T02:46:33.666Z,3.10
2017-11-23T02:49:01.177Z,3.23
2017-11-23T02:51:29.479Z,3.20
2017-11-23T02:53:57.007Z,3.63
2017-11-23T02:56:25.316Z,3.27
2017-11-23T02:58:52.829Z,2.67
2017-11-23T03:01:20.368Z,3.20
2017-11-23T03:03:47.886Z,2.83
2017-11-23T03:06:15.413Z,3.30
2017-11-23T03:08:43.712Z,3.17
2017-11-23T03:11:11.280Z,2.97
2017-11-23T03:13:38.807Z,3.00
2017-11-23T03:16:07.078Z,2.80
2017-11-23T03:18:35.389Z,3.33
2017-11-23T03:21:02.908Z,3.43
2017-11-23T03:23:30.442Z,4.43
2017-11-23T03:25:57.970Z,3.40
2017-11-23T03:28:25.515Z,3.03
2017-11-23T03:30:53.023Z,3.13
2017-11-23T03:33:20.654Z,3.53
2017-11-23T03:35:48.194Z,2.80
2017-11-23T03:38:15.771Z,3.53
2017-11-23T03:40:43.315Z,2.63
2017-11-23T03:43:10.890Z,4.00
2017-11-23T03:45:38.435Z,3.57
2017-11-23T03:48:05.953Z,4.43
2017-11-23T03:50:33.453Z,3.17
2017-11-23T03:53:01.006Z,3.60
2017-11-23T03:55:28.585Z,3.20
2017-11-23T03:57:56.160Z,3.70
2017-11-23T04:00:23.682Z,3.57
2017-11-23T04:02:51.219Z,3.90
2017-11-23T04:05:19.509Z,3.57
2017-11-23T04:07:47.051Z,4.17
2017-11-23T04:10:15.325Z,4.23
2017-11-23T04:12:42.876Z,3.60
2017-11-23T04:15:10.389Z,4.57
2017-11-23T04:17:37.912Z,4.30
2017-11-23T04:20:06.223Z,3.50
2017-11-23T04:22:33.753Z,3.43
2017-11-23T04:25:02.052Z,3.53
2017-11-23T04:27:29.565Z,4.53
2017-11-23T04:29:57.089Z,3.90
2017-11-23T04:32:24.592Z,4.13
2017-11-23T04:34:52.895Z,3.93
2017-11-23T04:37:20.416Z,4.00
2017-11-23T04:39:47.958Z,4.10
2017-11-23T04:42:15.480Z,3.10
2017-11-23T04:44:42.992Z,4.27
2017-11-23T04:47:10.527Z,4.07
2017-11-23T04:49:38.032Z,4.13
2017-11-23T04:52:05.591Z,3.97
2017-11-23T04:54:33.101Z,3.50
2017-11-23T04:57:00.744Z,4.20
2017-11-23T04:59:28.265Z,4.13
2017-11-23T05:01:56.533Z,3.90
2017-11-23T05:04:24.831Z,3.80
2017-11-23T05:06:52.341Z,3.80
2017-11-23T05:09:19.879Z,4.23
2017-11-23T05:11:47.400Z,4.10
2017-11-23T05:14:14.971Z,4.27
2017-11-23T05:16:42.481Z,4.30
2017-11-23T05:19:10.010Z,4.77
2017-11-23T05:21:37.536Z,4.37
2017-11-23T05:24:05.056Z,4.17
2017-11-23T05:26:32.578Z,4.57
2017-11-23T05:29:00.099Z,4.23
2017-11-23T05:31:28.409Z,4.13
2017-11-23T05:33:55.919Z,4.60
2017-11-23T05:36:24.227Z,4.50
2017-11-23T05:38:51.733Z,4.20
2017-11-23T05:41:19.250Z,4.53
2017-11-23T05:43:46.799Z,4.40
2017-11-23T05:46:14.319Z,4.70
2017-11-23T05:48:42.613Z,5.20
2017-11-23T05:51:10.900Z,5.20
2017-11-23T05:53:39.198Z,5.20
2017-11-23T05:56:06.705Z,3.93
2017-11-23T05:58:34.214Z,4.67
2017-11-23T06:01:01.768Z,4.77
2017-11-23T06:03:29.274Z,5.10
2017-11-23T06:05:56.805Z,4.90
2017-11-23T06:08:24.327Z,4.93
2017-11-23T06:10:51.875Z,4.10
2017-11-23T06:13:20.163Z,4.73
2017-11-23T06:15:47.696Z,5.00
2017-11-23T06:18:16.017Z,4.80
2017-11-23T06:20:43.524Z,4.00
2017-11-23T06:23:11.045Z,4.17
2017-11-23T06:25:38.563Z,4.77
2017-11-23T06:28:06.877Z,3.63
2017-11-23T06:30:34.400Z,3.87
2017-11-23T06:33:02.669Z,5.10
2017-11-23T06:35:30.984Z,3.67
2017-11-23T06:37:58.507Z,3.30
2017-11-23T06:40:26.813Z,4.53
2017-11-23T06:42:54.340Z,4.87
2017-11-23T06:45:22.675Z,4.23
2017-11-23T06:47:50.192Z,4.70
2017-11-23T06:50:17.706Z,4.30
2017-11-23T06:52:45.230Z,5.20
2017-11-23T06:55:12.756Z,4.73
2017-11-23T06:57:41.055Z,3.73
2017-11-23T07:00:08.556Z,3.30
2017-11-23T07:02:36.102Z,4.03
2017-11-23T07:05:03.599Z,4.33
2017-11-23T07:07:31.865Z,5.10
2017-11-23T07:09:59.385Z,4.57
2017-11-23T07:12:26.902Z,4.07
2017-11-23T07:14:55.197Z,4.70
2017-11-23T07:17:22.710Z,4.57
2017-11-23T07:19:50.241Z,4.40
2017-11-23T07:22:17.771Z,5.30
2017-11-23T07:24:45.288Z,3.70
2017-11-23T07:27:12.814Z,5.67
2017-11-23T07:29:40.343Z,4.33
2017-11-23T07:32:07.870Z,4.80
2017-11-23T07:34:35.397Z,4.60
2017-11-23T07:37:02.960Z,4.50
2017-11-23T07:39:30.489Z,5.00
2017-11-23T07:41:58.012Z,4.43
2017-11-23T07:44:26.297Z,4.07
2017-11-23T07:46:54.578Z,4.40
2017-11-23T07:49:22.124Z,4.63
2017-11-23T07:51:50.415Z,4.33
2017-11-23T07:54:17.960Z,3.93
2017-11-23T07:56:46.229Z,4.70
2017-11-23T07:59:14.498Z,5.63
2017-11-23T08:01:42.820Z,4.77
2017-11-23T08:04:10.328Z,4.20
2017-11-23T08:06:37.869Z,4.83
2017-11-23T08:09:05.378Z,4.27
2017-11-23T08:11:33.731Z,5.63
2017-11-23T08:14:02.759Z,4.60
2017-11-23T08:16:30.261Z,4.17
2017-11-23T08:18:57.796Z,3.77
2017-11-23T08:21:25.332Z,4.30
2017-11-23T08:23:52.869Z,4.17
2017-11-23T08:26:21.137Z,4.40
2017-11-23T08:28:49.455Z,4.40
2017-11-23T08:31:16.984Z,4.70
2017-11-23T08:33:45.272Z,3.90
2017-11-23T08:36:12.803Z,3.20
2017-11-23T08:38:40.310Z,4.37
2017-11-23T08:41:07.843Z,4.00
2017-11-23T08:43:35.377Z,3.57
2017-11-23T08:46:04.420Z,4.60
2017-11-23T08:48:31.904Z,3.53
2017-11-23T08:50:59.400Z,3.30
2017-11-23T08:53:30.679Z,3.63
2017-11-23T08:55:58.171Z,3.80
2017-11-23T08:58:25.680Z,3.03
2017-11-23T09:00:53.162Z,3.80
2017-11-23T09:03:20.680Z,4.13
2017-11-23T09:05:48.932Z,4.23
2017-11-23T09:08:16.423Z,5.43
2017-11-23T09:10:44.696Z,4.80
2017-11-23T09:13:12.955Z,4.17
2017-11-23T09:15:40.459Z,3.90
2017-11-23T09:18:07.967Z,3.40
2017-11-23T09:20:36.289Z,3.50
2017-11-23T09:23:03.794Z,3.87
2017-11-23T09:25:31.408Z,3.10
2017-11-23T09:27:58.938Z,4.47
2017-11-23T09:30:27.234Z,3.63
2017-11-23T09:32:54.753Z,3.40
2017-11-23T09:35:23.055Z,3.53
2017-11-23T09:37:51.362Z,3.80
2017-11-23T09:40:18.884Z,6.60
2017-11-23T09:42:47.191Z,6.00
2017-11-23T09:45:14.712Z,5.40
2017-11-23T09:47:42.989Z,4.00
2017-11-23T09:50:11.299Z,3.13
2017-11-23T09:52:38.801Z,3.07
2017-11-23T09:55:06.349Z,3.97
2017-11-23T09:57:33.867Z,2.43
2017-11-23T10:00:01.406Z,3.50
2017-11-23T10:02:29.670Z,3.10
2017-11-23T10:04:57.194Z,3.17
2017-11-23T10:07:24.714Z,3.20
2017-11-23T10:09:52.248Z,3.10
2017-11-23T10:12:20.538Z,3.03
2017-11-23T10:14:48.823Z,2.50
2017-11-23T10:17:16.344Z,3.60
2017-11-23T10:19:43.862Z,2.90
2017-11-23T10:22:11.372Z,3.00
2017-11-23T10:24:38.907Z,3.93
2017-11-23T10:27:06.409Z,2.67
2017-11-23T10:29:34.682Z,2.53
2017-11-23T10:32:03.005Z,3.00
2017-11-23T10:34:30.524Z,3.27
2017-11-23T10:36:58.066Z,3.50
2017-11-23T10:39:26.351Z,3.13
2017-11-23T10:41:54.632Z,2.77
2017-11-23T10:44:22.917Z,2.63
2017-11-23T10:46:50.464Z,2.90
2017-11-23T10:49:17.989Z,3.10
2017-11-23T10:51:46.281Z,2.20
2017-11-23T10:54:13.809Z,4.33
2017-11-23T10:56:41.445Z,3.13
2017-11-23T10:59:08.970Z,3.50
2017-11-23T11:01:37.246Z,2.90
2017-11-23T11:04:05.537Z,2.70
2017-11-23T11:06:33.055Z,3.20
2017-11-23T11:09:00.558Z,2.73
2017-11-23T11:11:28.099Z,2.97
2017-11-23T11:13:56.392Z,2.93
2017-11-23T11:16:23.917Z,2.80
2017-11-23T11:18:51.421Z,3.37
2017-11-23T11:21:18.957Z,3.90
2017-11-23T11:23:47.237Z,2.77
2017-11-23T11:26:14.819Z,2.27
2017-11-23T11:28:42.337Z,2.60
2017-11-23T11:31:10.628Z,3.10
2017-11-23T11:33:38.149Z,2.63
2017-11-23T11:36:06.419Z,2.97
2017-11-23T11:38:33.964Z,2.70
2017-11-23T11:41:01.491Z,3.07
2017-11-23T11:43:29.016Z,2.90
2017-11-23T11:45:57.331Z,2.83
2017-11-23T11:48:24.851Z,3.97
2017-11-23T11:50:53.164Z,2.77
2017-11-23T11:53:20.691Z,2.83
2017-11-23T11:55:49.004Z,2.73
2017-11-23T11:58:16.527Z,3.20
2017-11-23T12:00:44.802Z,3.20
2017-11-23T12:03:12.345Z,3.33
2017-11-23T12:05:39.860Z,3.40
2017-11-23T12:08:07.386Z,3.93
2017-11-23T12:10:35.688Z,2.97
2017-11-23T12:13:03.224Z,3.43
2017-11-23T12:15:33.310Z,3.30
2017-11-23T12:18:13.560Z,3.60
2017-11-23T12:20:53.110Z,3.93
2017-11-23T12:23:32.614Z,3.30
2017-11-23T12:26:00.475Z,3.37
2017-11-23T12:28:40.049Z,3.47
2017-11-23T12:31:07.600Z,3.23
2017-11-23T12:33:35.110Z,3.43
2017-11-23T12:36:02.662Z,2.70
2017-11-23T12:38:30.945Z,3.60
2017-11-23T12:40:58.478Z,4.50
2017-11-23T12:43:27.789Z,5.07
2017-11-23T12:45:56.090Z,5.10
2017-11-23T12:48:23.870Z,3.30
2017-11-23T12:50:51.402Z,4.43
2017-11-23T12:53:18.926Z,3.27
2017-11-23T12:55:46.958Z,4.30
2017-11-23T12:58:14.501Z,4.70
2017-11-23T13:00:43.031Z,3.23
2017-11-23T13:03:10.584Z,3.53
2017-11-23T13:05:38.156Z,3.90
2017-11-23T13:08:05.681Z,3.03
2017-11-23T13:10:33.335Z,2.87
2017-11-23T13:13:00.841Z,3.23
2017-11-23T13:15:28.375Z,2.47
2017-11-23T13:17:55.895Z,4.17
2017-11-23T13:20:23.445Z,3.50
2017-11-23T13:22:51.718Z,3.53
2017-11-23T13:25:19.229Z,3.00
2017-11-23T13:27:46.777Z,3.00
2017-11-23T13:30:14.296Z,3.40
2017-11-23T13:32:41.817Z,2.70
2017-11-23T13:35:10.084Z,2.47
2017-11-23T13:37:37.622Z,2.87
2017-11-23T13:40:05.139Z,2.57
2017-11-23T13:42:33.423Z,3.63
2017-11-23T13:45:01.728Z,3.50
2017-11-23T13:47:29.233Z,3.10
2017-11-23T13:49:58.261Z,2.70
2017-11-23T13:52:25.763Z,2.80
2017-11-23T13:54:54.088Z,2.63
2017-11-23T13:57:21.670Z,2.30
2017-11-23T13:59:49.243Z,2.83
2017-11-23T14:02:16.780Z,2.30
2017-11-23T14:04:44.295Z,2.50
2017-11-23T14:07:11.845Z,2.03
2017-11-23T14:09:39.385Z,3.63
2017-11-23T14:12:06.904Z,2.67
2017-11-23T14:14:34.415Z,2.77
2017-11-23T14:17:02.717Z,2.93
2017-11-23T14:19:30.992Z,1.83
2017-11-23T14:21:59.307Z,2.50
2017-11-23T14:24:26.856Z,2.47
2017-11-23T14:26:54.358Z,2.43
2017-11-23T14:29:21.901Z,2.90
2017-11-23T14:31:49.427Z,2.70
2017-11-23T14:34:17.068Z,2.93
2017-11-23T14:36:45.338Z,1.97
2017-11-23T14:39:14.062Z,3.03
2017-11-23T14:41:41.579Z,3.40
2017-11-23T14:44:09.846Z,2.40
2017-11-23T14:46:38.170Z,3.17
2017-11-23T14:49:05.744Z,2.50
2017-11-23T14:51:33.275Z,2.70
2017-11-23T14:54:00.781Z,2.60
2017-11-23T14:56:28.313Z,1.90
2017-11-23T14:58:55.831Z,2.30
2017-11-23T15:01:24.130Z,2.47
2017-11-23T15:03:51.645Z,2.50
2017-11-23T15:06:19.173Z,3.00
2017-11-23T15:08:46.673Z,2.90
2017-11-23T15:11:14.186Z,2.10
2017-11-23T15:13:41.708Z,1.97
2017-11-23T15:16:09.252Z,3.00
2017-11-23T15:18:37.627Z,2.83
2017-11-23T15:21:05.131Z,2.33
2017-11-23T15:23:32.713Z,2.27
2017-11-23T15:26:00.243Z,2.20
2017-11-23T15:28:27.788Z,2.40
2017-11-23T15:30:55.313Z,2.57
2017-11-23T15:33:22.832Z,2.40
2017-11-23T15:35:50.359Z,2.90
2017-11-23T15:38:18.629Z,2.60
2017-11-23T15:40:46.944Z,2.73
2017-11-23T15:43:14.457Z,3.07
2017-11-23T15:45:42.772Z,2.63
2017-11-23T15:48:10.297Z,2.77
2017-11-23T15:50:38.602Z,2.50
2017-11-23T15:53:06.126Z,2.70
2017-11-23T15:55:34.646Z,3.87
2017-11-23T15:58:02.311Z,5.33
2017-11-23T16:00:29.837Z,4.70
2017-11-23T16:02:58.140Z,5.93
2017-11-23T16:05:25.680Z,2.90
2017-11-23T16:07:53.188Z,5.10
2017-11-23T16:10:20.729Z,4.67
2017-11-23T16:12:48.234Z,6.77
2017-11-23T16:15:16.540Z,3.80
2017-11-23T16:17:44.064Z,4.33
2017-11-23T16:20:12.353Z,6.80
2017-11-23T16:22:40.638Z,5.13
2017-11-23T16:25:08.928Z,2.60
2017-11-23T16:27:36.460Z,2.90
2017-11-23T16:30:04.742Z,2.73
2017-11-23T16:32:33.046Z,2.70
2017-11-23T16:35:00.554Z,3.20
2017-11-23T16:37:28.083Z,3.07
2017-11-23T16:43:00.000Z,2.33
2017-11-23T16:45:33.266Z,2.80
2017-11-23T16:48:06.589Z,3.33
2017-11-23T16:50:48.710Z,2.50
2017-11-23T16:53:21.869Z,3.10
2017-11-23T16:55:55.060Z,2.50
2017-11-23T16:58:35.462Z,2.23
2017-11-23T17:01:08.647Z,4.93
2017-11-23T17:03:41.807Z,2.80
2017-11-23T17:06:15.031Z,3.47
2017-11-23T17:08:49.049Z,2.70
2017-11-23T17:14:23.981Z,6.10
2017-11-23T17:16:59.927Z,6.00
2017-11-23T17:19:30.743Z,5.60
2017-11-23T17:21:58.278Z,6.23
2017-11-23T17:24:25.785Z,10.37
2017-11-23T17:26:54.073Z,7.00
2017-11-23T17:29:22.411Z,9.23
2017-11-23T17:31:49.970Z,8.27
2017-11-23T17:34:17.516Z,8.57
2017-11-23T17:36:45.048Z,10.00
2017-11-23T17:39:12.606Z,11.63
2017-11-23T17:41:40.121Z,11.60
2017-11-23T17:44:07.674Z,10.83
2017-11-23T17:46:35.212Z,11.63
2017-11-23T17:49:02.757Z,13.27
2017-11-23T17:51:30.265Z,14.10
2017-11-23T17:53:58.565Z,14.80
2017-11-23T17:56:26.098Z,14.97
2017-11-23T17:58:54.385Z,12.87
2017-11-23T18:01:22.698Z,13.80
2017-11-23T18:03:50.204Z,12.70
2017-11-23T18:06:17.737Z,11.33
2017-11-23T18:08:45.245Z,11.90
2017-11-23T18:11:12.775Z,11.63
2017-11-23T18:13:40.324Z,16.43
2017-11-23T18:16:07.875Z,41.00
2017-11-23T18:18:35.431Z,25.87
2017-11-23T18:21:02.961Z,14.60
2017-11-23T18:23:30.501Z,13.70
2017-11-23T18:25:58.013Z,7.53
2017-11-23T18:28:25.550Z,6.30
2017-11-23T18:30:53.099Z,7.07
2017-11-23T18:33:20.605Z,8.17
2017-11-23T18:35:48.156Z,7.50
2017-11-23T18:38:15.685Z,9.10
2017-11-23T18:40:43.259Z,7.30
2017-11-23T18:43:10.791Z,8.47
2017-11-23T18:45:38.306Z,9.40
2017-11-23T18:48:06.605Z,10.87
2017-11-23T18:50:34.118Z,9.73
2017-11-23T18:53:01.660Z,9.17
2017-11-23T18:55:29.196Z,12.17
2017-11-23T18:57:56.740Z,12.23
2017-11-23T19:00:24.253Z,10.97
2017-11-23T19:02:51.820Z,9.50
2017-11-23T19:05:19.330Z,8.57
2017-11-23T19:07:46.860Z,8.47
2017-11-23T19:10:15.167Z,9.27
2017-11-23T19:12:42.760Z,10.67
2017-11-23T19:15:10.294Z,10.37
2017-11-23T19:17:38.255Z,9.40
2017-11-23T19:20:05.793Z,9.17
2017-11-23T19:22:33.349Z,9.20
2017-11-23T19:25:00.881Z,9.10
2017-11-23T19:27:28.398Z,9.07
2017-11-23T19:29:55.932Z,10.10
2017-11-23T19:32:23.471Z,9.40
2017-11-23T19:34:51.767Z,8.70
2017-11-23T19:37:19.353Z,8.37
2017-11-23T19:39:46.868Z,8.73
2017-11-23T19:42:15.174Z,8.00
2017-11-23T19:44:42.709Z,8.70
2017-11-23T19:47:10.231Z,8.17
2017-11-23T19:49:37.781Z,7.10
2017-11-23T19:52:05.286Z,9.10
2017-11-23T19:54:32.829Z,7.63
2017-11-23T19:57:01.124Z,7.07
2017-11-23T19:59:28.684Z,7.17
2017-11-23T20:01:56.212Z,6.73
2017-11-23T20:04:25.249Z,5.50
2017-11-23T20:06:52.813Z,5.53
2017-11-23T20:09:20.338Z,5.23
2017-11-23T20:11:48.630Z,4.80
2017-11-23T20:14:16.169Z,4.70
2017-11-23T20:16:44.469Z,4.70
2017-11-23T20:19:11.991Z,4.53
2017-11-23T20:21:39.525Z,3.80
2017-11-23T20:24:07.069Z,2.83
2017-11-23T20:26:34.586Z,3.20
2017-11-23T20:29:02.926Z,2.97
2017-11-23T20:31:30.436Z,2.50
2017-11-23T20:33:58.085Z,2.70
2017-11-23T20:36:26.364Z,1.97
2017-11-23T20:38:54.661Z,2.90
2017-11-23T20:41:22.177Z,2.10
2017-11-23T20:43:49.697Z,2.67
2017-11-23T20:46:17.226Z,2.53
2017-11-23T20:48:44.775Z,2.17
2017-11-23T20:51:13.068Z,3.43
2017-11-23T20:53:40.582Z,2.20
2017-11-23T20:56:08.139Z,3.10
2017-11-23T20:58:35.649Z,2.80
2017-11-23T21:01:03.198Z,2.80
2017-11-23T21:03:30.714Z,3.60
2017-11-23T21:05:58.240Z,3.17
2017-11-23T21:08:25.750Z,2.77
2017-11-23T21:10:54.076Z,2.97
2017-11-23T21:13:21.577Z,2.30
2017-11-23T21:15:49.849Z,3.20
2017-11-23T21:18:17.460Z,2.83
2017-11-23T21:20:44.969Z,2.23
2017-11-23T21:23:12.497Z,2.70
2017-11-23T21:25:40.028Z,2.80
2017-11-23T21:28:07.594Z,2.50
2017-11-23T21:30:35.112Z,2.70
2017-11-23T21:33:03.429Z,2.90
2017-11-23T21:35:30.956Z,2.63
2017-11-23T21:37:59.336Z,3.07
2017-11-23T21:40:27.629Z,3.47
2017-11-23T21:42:55.173Z,2.57
2017-11-23T21:45:23.487Z,2.80
2017-11-23T21:47:50.998Z,2.73
2017-11-23T21:50:19.297Z,2.03
2017-11-23T21:52:46.826Z,2.43
2017-11-23T21:55:15.122Z,3.03
2017-11-23T21:57:42.651Z,2.57
2017-11-23T22:00:10.172Z,2.37
2017-11-23T22:02:37.728Z,2.40
2017-11-23T22:05:05.266Z,2.70
2017-11-23T22:07:32.810Z,2.60
2017-11-23T22:10:01.095Z,2.23
2017-11-23T22:12:28.601Z,2.87
2017-11-23T22:14:56.125Z,2.80
2017-11-23T22:17:23.643Z,2.50
2017-11-23T22:19:51.169Z,3.00
2017-11-23T22:22:18.677Z,2.70
2017-11-23T22:24:46.984Z,2.97
2017-11-23T22:27:14.549Z,2.60
2017-11-23T22:29:42.089Z,3.87
2017-11-23T22:32:09.637Z,3.00
2017-11-23T22:34:37.163Z,3.30
2017-11-23T22:37:04.762Z,3.50
2017-11-23T22:39:32.616Z,3.80
2017-11-23T22:42:00.924Z,3.20
2017-11-23T22:44:28.430Z,3.90
2017-11-23T22:46:55.955Z,4.23
2017-11-23T22:49:23.473Z,2.87
2017-11-23T22:51:50.996Z,2.70
2017-11-23T22:54:18.528Z,2.80
2017-11-23T22:56:46.047Z,2.63
2017-11-23T22:59:14.359Z,2.47
2017-11-23T23:01:41.884Z,2.17
2017-11-23T23:04:09.404Z,2.10
2017-11-23T23:06:36.949Z,2.67
2017-11-23T23:09:04.454Z,2.60
2017-11-23T23:11:32.762Z,2.70
2017-11-23T23:14:00.284Z,2.60
2017-11-23T23:16:28.578Z,3.30
2017-11-23T23:18:56.091Z,2.30
2017-11-23T23:21:23.613Z,2.43
2017-11-23T23:23:51.139Z,3.43
2017-11-23T23:26:19.415Z,2.50
2017-11-23T23:28:47.711Z,2.40
2017-11-23T23:31:15.223Z,2.67
2017-11-23T23:33:42.741Z,3.17
2017-11-23T23:36:10.244Z,2.40
2017-11-23T23:38:37.796Z,2.20
2017-11-23T23:41:05.298Z,2.40
2017-11-23T23:43:32.809Z,2.80
2017-11-23T23:46:00.347Z,2.70
2017-11-23T23:48:27.862Z,2.70
2017-11-23T23:50:55.396Z,3.00
2017-11-23T23:53:22.911Z,3.23
2017-11-23T23:55:50.437Z,2.67
2017-11-23T23:58:18.724Z,4.17
